Time;durP1;ratioP1;P1;durP2;ratioP2;P2;SDS_P1;SDS_P2;PMS_P1;PMS_P2;Temp;Humidity;BMP_temperature;BMP_pressure;BME280_temperature;BME280_humidity;BME280_pressure;Samples;Min_cycle;Max_cycle;Signal;HPM_P1;HPM_P2
2023/07/26 00:02:21;;;;;;;1.65;1.50;;;17.40;99.90;;;;;;5011765;28;20037;-75
2023/07/26 00:04:46;;;;;;;6.22;1.10;;;17.40;99.90;;;;;;5012808;28;20105;-76
2023/07/26 00:07:12;;;;;;;1.30;1.13;;;17.30;99.90;;;;;;5011686;28;20420;-76
2023/07/26 00:09:38;;;;;;;1.67;1.00;;;17.30;99.90;;;;;;5012702;28;20029;-75
2023/07/26 00:12:04;;;;;;;4.13;1.02;;;17.30;99.90;;;;;;5011613;28;20026;-76
2023/07/26 00:14:29;;;;;;;1.40;1.08;;;17.30;99.90;;;;;;5012738;28;20141;-77
2023/07/26 00:16:55;;;;;;;1.77;1.23;;;17.20;99.90;;;;;;5013035;28;20022;-77
2023/07/26 00:19:23;;;;;;;2.10;1.25;;;17.20;99.90;;;;;;5012660;28;20030;-76
2023/07/26 00:21:49;;;;;;;2.80;1.58;;;17.30;99.90;;;;;;5012636;28;20029;-76
2023/07/26 00:24:14;;;;;;;2.15;1.90;;;17.30;99.90;;;;;;5012601;28;20395;-76
2023/07/26 00:26:40;;;;;;;8.70;1.25;;;17.40;99.90;;;;;;5012645;28;20029;-76
2023/07/26 00:29:06;;;;;;;2.42;1.00;;;17.30;99.90;;;;;;5011978;28;20030;-76
2023/07/26 00:31:31;;;;;;;2.22;1.02;;;17.40;99.90;;;;;;5011322;28;20029;-76
2023/07/26 00:33:57;;;;;;;1.95;0.88;;;17.30;99.90;;;;;;5012409;28;20098;-75
2023/07/26 00:36:23;;;;;;;1.73;1.10;;;17.20;99.90;;;;;;5012598;28;20041;-76
2023/07/26 00:38:49;;;;;;;2.90;0.90;;;17.10;99.90;;;;;;5012373;28;20427;-76
2023/07/26 00:41:15;;;;;;;0.88;0.88;;;17.10;99.90;;;;;;5012188;28;20069;-76
2023/07/26 00:43:41;;;;;;;0.77;0.77;;;17.00;99.90;;;;;;5012346;28;20061;-75
2023/07/26 00:46:07;;;;;;;1.23;0.80;;;17.00;99.90;;;;;;5012365;28;20065;-76
2023/07/26 00:48:34;;;;;;;1.00;0.70;;;17.00;99.90;;;;;;5012368;28;20488;-76
2023/07/26 00:51:00;;;;;;;1.50;1.23;;;16.80;99.90;;;;;;5012079;28;20108;-76
2023/07/26 00:53:27;;;;;;;2.50;0.80;;;16.80;99.90;;;;;;5012447;28;20431;-76
2023/07/26 00:55:53;;;;;;;1.25;0.90;;;16.80;99.90;;;;;;5012146;28;20026;-76
2023/07/26 00:58:20;;;;;;;1.63;0.88;;;16.70;99.90;;;;;;5012228;28;20018;-76
2023/07/26 01:00:46;;;;;;;1.10;0.82;;;16.60;99.90;;;;;;5011989;28;20050;-77
2023/07/26 01:03:13;;;;;;;0.85;0.77;;;16.60;99.90;;;;;;5010843;28;20096;-77
2023/07/26 01:05:49;;;;;;;4.07;0.82;;;16.60;99.90;;;;;;5011949;28;20472;-76
2023/07/26 01:08:14;;;;;;;;;;;16.60;99.90;;;;;;5012482;28;20026;-77
2023/07/26 01:11:04;;;;;;;2.08;1.00;;;16.60;99.90;;;;;;5011826;28;19912;-76
2023/07/26 01:13:42;;;;;;;1.00;0.90;;;16.60;99.90;;;;;;5010705;28;20038;-75
2023/07/26 01:16:08;;;;;;;1.75;1.15;;;16.60;99.90;;;;;;5012007;28;20041;-76
2023/07/26 01:18:33;;;;;;;4.70;1.30;;;16.60;99.90;;;;;;5010610;28;20125;-76
2023/07/26 01:20:59;;;;;;;1.45;0.95;;;16.60;99.90;;;;;;5011664;28;20153;-76
2023/07/26 01:23:25;;;;;;;1.95;0.80;;;16.70;99.90;;;;;;5010613;28;20049;-76
2023/07/26 01:25:51;;;;;;;3.60;1.45;;;16.70;99.90;;;;;;5011696;28;20096;-76
2023/07/26 01:28:16;;;;;;;2.30;0.80;;;16.70;99.90;;;;;;5011912;28;20437;-76
2023/07/26 01:30:43;;;;;;;3.50;0.93;;;16.70;99.90;;;;;;5011658;28;20022;-76
2023/07/26 01:33:09;;;;;;;3.40;0.93;;;16.70;99.90;;;;;;5011778;28;20049;-76
2023/07/26 01:35:37;;;;;;;2.50;0.75;;;16.60;99.90;;;;;;5011528;28;20050;-75
2023/07/26 01:38:03;;;;;;;4.90;1.92;;;16.60;99.90;;;;;;5010454;28;20427;-77
2023/07/26 01:40:29;;;;;;;3.45;0.77;;;16.60;99.90;;;;;;5010955;28;20038;-76
2023/07/26 01:42:56;;;;;;;0.70;0.55;;;16.50;99.90;;;;;;5014343;28;20076;-76
2023/07/26 01:45:21;;;;;;;2.05;0.70;;;16.50;99.90;;;;;;5015573;28;20032;-76
2023/07/26 01:47:49;;;;;;;2.78;0.70;;;16.40;99.90;;;;;;5015636;28;20030;-76
2023/07/26 01:50:14;;;;;;;1.50;0.75;;;16.40;99.90;;;;;;5013947;28;20026;-76
2023/07/26 01:52:40;;;;;;;1.02;0.93;;;16.40;99.90;;;;;;5015537;28;20105;-76
2023/07/26 01:55:06;;;;;;;0.95;0.95;;;16.40;99.90;;;;;;5015426;28;20503;-76
2023/07/26 01:57:32;;;;;;;4.32;0.80;;;16.40;99.90;;;;;;5015349;28;20030;-76
2023/07/26 01:59:59;;;;;;;2.15;1.10;;;16.40;99.90;;;;;;5015175;28;20033;-76
2023/07/26 02:02:24;;;;;;;3.97;0.52;;;16.40;99.90;;;;;;5015286;28;20075;-77
2023/07/26 02:04:50;;;;;;;1.92;1.23;;;16.40;99.90;;;;;;5015186;28;20029;-75
2023/07/26 02:07:16;;;;;;;2.10;0.93;;;16.40;99.90;;;;;;5015115;28;20076;-76
2023/07/26 02:09:43;;;;;;;1.35;0.98;;;16.40;99.90;;;;;;5013768;28;20048;-76
2023/07/26 02:12:08;;;;;;;1.90;0.75;;;16.40;99.90;;;;;;5013948;28;20030;-76
2023/07/26 02:14:34;;;;;;;1.48;0.82;;;16.30;99.90;;;;;;5015020;28;20108;-77
2023/07/26 02:16:59;;;;;;;5.03;1.35;;;16.30;99.90;;;;;;5013809;28;20030;-76
2023/07/26 02:19:25;;;;;;;2.65;0.75;;;16.30;99.90;;;;;;5013564;28;20520;-76
2023/07/26 02:21:51;;;;;;;2.03;1.73;;;16.30;99.90;;;;;;5015028;28;20030;-76
2023/07/26 02:24:16;;;;;;;0.47;0.40;;;16.20;99.90;;;;;;5014861;28;20109;-76
2023/07/26 02:26:42;;;;;;;1.83;0.50;;;16.30;99.90;;;;;;5013526;28;20025;-76
2023/07/26 02:29:07;;;;;;;0.95;0.50;;;16.30;99.90;;;;;;5013482;28;20511;-77
2023/07/26 02:31:33;;;;;;;0.70;0.50;;;16.20;99.90;;;;;;5014774;28;20032;-76
2023/07/26 02:33:59;;;;;;;0.77;0.77;;;16.20;99.90;;;;;;5014599;28;20030;-76
2023/07/26 02:36:25;;;;;;;2.70;0.65;;;16.20;99.90;;;;;;5014659;28;20122;-76
2023/07/26 02:38:50;;;;;;;0.65;0.43;;;16.10;99.90;;;;;;5014528;28;20077;-75
2023/07/26 02:41:16;;;;;;;3.17;1.27;;;16.10;99.90;;;;;;5032788;23;20495;-76
2023/07/26 02:43:42;;;;;;;0.77;0.52;;;16.00;99.90;;;;;;5014209;28;20057;-77
2023/07/26 02:46:08;;;;;;;1.85;0.68;;;16.00;99.90;;;;;;5015742;28;20062;-77
2023/07/26 02:48:34;;;;;;;1.50;0.68;;;15.90;99.90;;;;;;5015929;28;20022;-76
2023/07/26 02:51:00;;;;;;;4.13;0.60;;;15.80;99.90;;;;;;5013713;28;20025;-77
2023/07/26 02:53:25;;;;;;;1.48;0.68;;;15.90;99.90;;;;;;5013970;28;20022;-77
2023/07/26 02:55:51;;;;;;;1.95;0.52;;;15.80;99.90;;;;;;5013576;28;20030;-78
2023/07/26 02:58:17;;;;;;;0.80;0.52;;;15.80;99.90;;;;;;5013917;28;20018;-77
2023/07/26 03:00:42;;;;;;;3.03;0.40;;;15.80;99.90;;;;;;5014049;28;20022;-77
2023/07/26 03:03:08;;;;;;;2.92;0.60;;;15.80;99.90;;;;;;5014959;28;20072;-77
2023/07/26 03:05:36;;;;;;;1.50;0.73;;;15.70;99.90;;;;;;5015157;28;20024;-77
2023/07/26 03:08:02;;;;;;;7.97;1.20;;;15.70;99.90;;;;;;5013946;28;20030;-78
2023/07/26 03:10:27;;;;;;;2.15;1.15;;;15.60;99.90;;;;;;5015014;28;20152;-77
2023/07/26 03:12:55;;;;;;;6.55;0.95;;;15.60;99.90;;;;;;5014764;28;20113;-77
2023/07/26 03:15:21;;;;;;;1.13;0.60;;;15.60;99.90;;;;;;5013564;28;20026;-76
2023/07/26 03:17:46;;;;;;;4.68;1.25;;;15.50;99.90;;;;;;5014718;28;20472;-76
2023/07/26 03:20:12;;;;;;;1.45;0.90;;;15.50;99.90;;;;;;5013592;28;20088;-77
2023/07/26 03:22:38;;;;;;;2.17;0.73;;;15.50;99.90;;;;;;5013564;28;20065;-78
2023/07/26 03:25:04;;;;;;;3.30;0.88;;;15.40;99.90;;;;;;5013870;28;20475;-76
2023/07/26 03:27:29;;;;;;;1.08;0.63;;;15.40;99.90;;;;;;5013611;28;20606;-78
2023/07/26 03:29:55;;;;;;;4.68;0.60;;;15.40;99.90;;;;;;5013985;28;20037;-77
2023/07/26 03:32:21;;;;;;;0.85;0.52;;;15.40;99.90;;;;;;5014951;28;20518;-77
2023/07/26 03:34:47;;;;;;;5.82;0.50;;;15.30;99.90;;;;;;5013865;28;20021;-77
2023/07/26 03:37:12;;;;;;;0.73;0.60;;;15.30;99.90;;;;;;5015067;28;20148;-77
2023/07/26 03:39:38;;;;;;;0.40;0.40;;;15.30;99.90;;;;;;5013204;28;20121;-77
2023/07/26 03:42:04;;;;;;;0.47;0.40;;;15.30;99.90;;;;;;5013438;28;20045;-77
2023/07/26 03:44:29;;;;;;;0.50;0.50;;;15.20;99.90;;;;;;5012941;28;20029;-77
2023/07/26 03:46:55;;;;;;;1.60;0.77;;;15.20;99.90;;;;;;5013867;28;20476;-77
2023/07/26 03:49:20;;;;;;;4.07;0.68;;;15.30;99.90;;;;;;5015965;28;20018;-77
2023/07/26 03:51:46;;;;;;;0.65;0.50;;;15.20;99.90;;;;;;5014157;28;20550;-79
2023/07/26 03:54:12;;;;;;;0.32;0.30;;;15.20;99.90;;;;;;5015130;28;20026;-79
2023/07/26 03:56:37;;;;;;;1.08;0.75;;;15.20;99.90;;;;;;5015278;28;20481;-77
2023/07/26 03:59:03;;;;;;;0.70;0.60;;;15.20;99.90;;;;;;5014634;28;20068;-78
2023/07/26 04:01:28;;;;;;;0.60;0.60;;;15.20;99.90;;;;;;5013349;28;20034;-77
2023/07/26 04:03:54;;;;;;;0.57;0.55;;;15.10;99.90;;;;;;5012921;28;20026;-77
2023/07/26 04:06:20;;;;;;;1.10;0.60;;;15.10;99.90;;;;;;5014992;28;20025;-77
2023/07/26 04:08:46;;;;;;;0.77;0.43;;;15.10;99.90;;;;;;5013582;28;20054;-77
2023/07/26 04:11:11;;;;;;;1.10;0.70;;;15.10;99.90;;;;;;5012978;28;20033;-76
2023/07/26 04:13:37;;;;;;;3.33;1.15;;;15.10;99.90;;;;;;5012532;28;20400;-77
2023/07/26 04:16:18;;;;;;;2.17;0.32;;;15.10;99.90;;;;;;5012793;28;20022;-79
2023/07/26 04:18:44;;;;;;;1.88;1.60;;;15.10;99.90;;;;;;5014160;28;20026;-78
2023/07/26 04:21:16;;;;;;;5.68;1.00;;;15.20;99.90;;;;;;5013642;28;20018;-78
2023/07/26 04:23:42;;;;;;;1.48;0.75;;;15.20;99.90;;;;;;5013703;28;20072;-79
2023/07/26 04:26:08;;;;;;;0.73;0.65;;;15.20;99.90;;;;;;5013699;28;20036;-78
2023/07/26 04:28:33;;;;;;;2.55;1.25;;;15.20;99.90;;;;;;5014953;28;20018;-78
2023/07/26 04:30:59;;;;;;;2.65;0.90;;;15.20;99.90;;;;;;5014719;28;20018;-79
2023/07/26 04:33:25;;;;;;;1.50;1.40;;;15.30;99.90;;;;;;5013381;28;20072;-78
2023/07/26 04:35:51;;;;;;;1.45;0.68;;;15.30;99.90;;;;;;5014759;28;20029;-79
2023/07/26 04:38:18;;;;;;;3.05;0.65;;;15.40;99.90;;;;;;5014057;28;20425;-78
2023/07/26 04:40:47;;;;;;;1.45;0.90;;;15.40;99.90;;;;;;5014174;28;20029;-79
2023/07/26 04:43:16;;;;;;;1.63;0.90;;;17.50;99.90;;;;;;5013289;28;20022;-78
2023/07/26 04:45:44;;;;;;;2.28;0.50;;;17.80;99.90;;;;;;5015621;28;20056;-78
2023/07/26 04:48:10;;;;;;;5.75;1.00;;;18.30;99.90;;;;;;5014368;28;20025;-77
2023/07/26 04:50:35;;;;;;;1.20;0.50;;;18.60;99.90;;;;;;5013129;28;20110;-78
2023/07/26 04:53:01;;;;;;;2.63;0.88;;;18.40;99.90;;;;;;5013425;28;20396;-77
2023/07/26 04:55:27;;;;;;;1.60;1.50;;;18.00;99.90;;;;;;5014162;28;20022;-76
2023/07/26 04:57:52;;;;;;;3.97;0.90;;;17.80;99.90;;;;;;5014923;28;20487;-76
2023/07/26 05:00:18;;;;;;;3.03;1.13;;;17.60;99.90;;;;;;5011133;28;20058;-78
2023/07/26 05:02:44;;;;;;;4.28;1.25;;;17.60;99.90;;;;;;5012626;28;20108;-75
2023/07/26 05:05:09;;;;;;;2.55;1.10;;;18.20;99.90;;;;;;5011142;28;20121;-77
2023/07/26 05:07:35;;;;;;;0.82;0.70;;;18.30;99.90;;;;;;5012586;28;20034;-77
2023/07/26 05:10:01;;;;;;;1.77;0.80;;;18.20;99.90;;;;;;5012347;28;20025;-76
2023/07/26 05:12:26;;;;;;;4.80;4.35;;;18.70;99.90;;;;;;5011930;28;20048;-77
2023/07/26 05:14:52;;;;;;;2.63;1.73;;;18.10;99.90;;;;;;5012396;28;20399;-77
2023/07/26 05:17:17;;;;;;;5.30;1.00;;;17.90;99.90;;;;;;5011189;28;20049;-76
2023/07/26 05:19:43;;;;;;;4.90;1.20;;;18.00;99.90;;;;;;5011048;28;20025;-77
2023/07/26 05:22:09;;;;;;;0.68;0.32;;;18.30;99.90;;;;;;5011254;28;20042;-77
2023/07/26 05:24:34;;;;;;;4.43;0.82;;;18.40;99.90;;;;;;5012248;28;20072;-76
2023/07/26 05:27:00;;;;;;;2.65;1.30;;;18.20;99.90;;;;;;5011178;28;20033;-77
2023/07/26 05:29:25;;;;;;;1.52;0.80;;;18.20;99.90;;;;;;5011103;28;20088;-77
2023/07/26 05:31:51;;;;;;;1.23;0.90;;;18.30;99.90;;;;;;5012507;28;20064;-76
2023/07/26 05:34:16;;;;;;;1.15;0.90;;;18.00;99.90;;;;;;5012340;28;20044;-77
2023/07/26 05:36:42;;;;;;;0.60;0.60;;;17.60;99.90;;;;;;5011388;28;20403;-76
2023/07/26 05:39:08;;;;;;;5.65;0.90;;;17.70;99.90;;;;;;5012568;28;20026;-75
2023/07/26 05:41:33;;;;;;;2.60;0.98;;;18.00;99.90;;;;;;5011121;28;20490;-77
2023/07/26 05:43:59;;;;;;;1.20;1.00;;;17.70;99.90;;;;;;5012427;28;20026;-77
2023/07/26 05:46:25;;;;;;;3.38;1.35;;;17.90;99.90;;;;;;5011085;28;20034;-77
2023/07/26 05:48:51;;;;;;;2.05;0.60;;;17.80;99.90;;;;;;5011097;28;20104;-77
2023/07/26 05:51:16;;;;;;;1.17;0.60;;;17.80;99.90;;;;;;5011012;28;20481;-76
2023/07/26 05:53:42;;;;;;;0.60;0.50;;;17.80;99.90;;;;;;5012071;28;20022;-77
2023/07/26 05:56:08;;;;;;;1.85;0.70;;;17.70;99.90;;;;;;5012149;28;20400;-77
2023/07/26 05:58:34;;;;;;;3.72;1.30;;;18.20;99.90;;;;;;5012312;28;20026;-77
2023/07/26 06:01:00;;;;;;;0.47;0.47;;;18.50;99.90;;;;;;5010577;28;20029;-76
2023/07/26 06:03:25;;;;;;;1.67;0.73;;;18.70;99.90;;;;;;5010740;28;20483;-77
2023/07/26 06:05:51;;;;;;;0.68;0.43;;;18.70;99.90;;;;;;5011933;28;20037;-76
2023/07/26 06:08:17;;;;;;;0.85;0.70;;;18.70;99.90;;;;;;5010773;28;20034;-77
2023/07/26 06:10:43;;;;;;;0.47;0.47;;;18.70;99.90;;;;;;5011644;28;20084;-77
2023/07/26 06:13:12;;;;;;;1.45;0.75;;;18.80;99.90;;;;;;5010722;28;20033;-77
2023/07/26 06:15:39;;;;;;;5.18;0.52;;;18.40;99.90;;;;;;5011720;28;20026;-77
2023/07/26 06:18:05;;;;;;;0.85;0.77;;;17.90;99.90;;;;;;5011171;28;20109;-77
2023/07/26 06:20:31;;;;;;;3.67;0.63;;;17.60;99.90;;;;;;5010467;28;20112;-77
2023/07/26 06:22:56;;;;;;;2.13;0.60;;;17.30;99.90;;;;;;5010795;28;20022;-77
2023/07/26 06:25:22;;;;;;;0.60;0.60;;;17.20;99.90;;;;;;5010830;28;20029;-77
2023/07/26 06:27:47;;;;;;;1.17;0.77;;;17.10;99.90;;;;;;5014494;28;20034;-77
2023/07/26 06:30:15;;;;;;;3.10;0.70;;;17.00;99.90;;;;;;5014080;28;20046;-77
2023/07/26 06:32:41;;;;;;;0.55;0.55;;;16.90;99.90;;;;;;5014186;28;20022;-76
2023/07/26 06:35:08;;;;;;;1.60;0.90;;;16.80;99.90;;;;;;5014049;28;20033;-77
2023/07/26 06:37:35;;;;;;;1.10;0.65;;;16.80;99.90;;;;;;5014061;28;20096;-76
2023/07/26 06:40:01;;;;;;;3.45;1.35;;;16.90;99.90;;;;;;5015250;28;20048;-76
2023/07/26 06:42:27;;;;;;;1.38;0.70;;;16.80;99.90;;;;;;5014075;28;20500;-77
2023/07/26 06:44:52;;;;;;;1.65;0.80;;;16.80;99.90;;;;;;5015219;28;20037;-78
2023/07/26 06:47:18;;;;;;;1.63;0.93;;;16.80;99.90;;;;;;5015501;28;20108;-76
2023/07/26 06:49:44;;;;;;;2.72;1.30;;;16.80;99.90;;;;;;5015235;28;20025;-77
2023/07/26 06:52:09;;;;;;;1.15;1.05;;;17.30;99.90;;;;;;5013773;28;20026;-76
2023/07/26 06:54:36;;;;;;;2.58;1.00;;;17.80;99.90;;;;;;5015562;28;20025;-77
2023/07/26 06:57:02;;;;;;;2.50;0.80;;;18.10;99.90;;;;;;5014729;28;20029;-77
2023/07/26 06:59:28;;;;;;;2.30;0.93;;;18.30;99.90;;;;;;5013489;28;20049;-78
2023/07/26 07:01:53;;;;;;;1.58;0.45;;;18.40;99.90;;;;;;5013444;28;20037;-79
2023/07/26 07:04:19;;;;;;;12.75;1.15;;;18.40;99.90;;;;;;5012977;28;20546;-73
2023/07/26 07:06:45;;;;;;;2.83;0.73;;;18.50;99.90;;;;;;5015254;28;20109;-76
2023/07/26 07:09:11;;;;;;;2.42;0.90;;;18.50;99.90;;;;;;5014773;28;20117;-75
2023/07/26 07:11:36;;;;;;;1.40;0.70;;;18.40;99.90;;;;;;5016511;28;20022;-76
2023/07/26 07:14:03;;;;;;;2.20;0.95;;;18.70;99.90;;;;;;5016433;28;20071;-77
2023/07/26 07:16:29;;;;;;;0.70;0.70;;;18.60;99.90;;;;;;5017297;28;20017;-77
2023/07/26 07:18:54;;;;;;;1.25;0.68;;;18.80;99.90;;;;;;5014616;28;20026;-76
2023/07/26 07:21:20;;;;;;;2.83;0.45;;;18.70;99.90;;;;;;5016809;28;20037;-77
2023/07/26 07:23:46;;;;;;;1.05;0.57;;;18.60;99.90;;;;;;5015643;28;20476;-77
2023/07/26 07:26:12;;;;;;;2.25;0.40;;;18.50;99.90;;;;;;5014781;28;20025;-77
2023/07/26 07:28:38;;;;;;;1.40;0.68;;;18.50;99.90;;;;;;5015378;28;20022;-77
2023/07/26 07:31:03;;;;;;;1.52;0.47;;;18.60;99.90;;;;;;5015510;28;20113;-77
2023/07/26 07:33:30;;;;;;;0.85;0.68;;;18.70;99.90;;;;;;5015819;28;20053;-78
2023/07/26 07:35:55;;;;;;;0.40;0.40;;;18.90;99.90;;;;;;5016163;28;20113;-78
2023/07/26 07:38:21;;;;;;;1.25;0.50;;;19.00;99.90;;;;;;5016965;28;20486;-77
2023/07/26 07:40:47;;;;;;;0.40;0.40;;;18.80;99.90;;;;;;5016135;28;20518;-78
2023/07/26 07:43:13;;;;;;;0.85;0.32;;;18.70;99.90;;;;;;5016380;28;20057;-77
2023/07/26 07:45:40;;;;;;;0.63;0.20;;;18.70;99.90;;;;;;5014400;28;20023;-77
2023/07/26 07:48:06;;;;;;;0.20;0.17;;;18.70;99.90;;;;;;5014608;28;20045;-77
2023/07/26 07:50:32;;;;;;;0.30;0.30;;;18.70;99.90;;;;;;5015909;28;20045;-77
2023/07/26 07:52:58;;;;;;;0.85;0.38;;;18.70;99.90;;;;;;5014610;28;20049;-77
2023/07/26 07:55:23;;;;;;;0.40;0.28;;;18.60;99.90;;;;;;5015348;28;20593;-77
2023/07/26 07:57:49;;;;;;;0.20;0.20;;;18.60;99.90;;;;;;5014620;28;20056;-77
2023/07/26 08:00:15;;;;;;;0.10;0.10;;;18.60;99.90;;;;;;5014475;28;20121;-77
2023/07/26 08:02:40;;;;;;;0.35;0.17;;;18.80;99.90;;;;;;5015300;28;20075;-76
2023/07/26 08:05:06;;;;;;;0.43;0.43;;;18.90;99.90;;;;;;5014233;28;20480;-78
2023/07/26 08:07:32;;;;;;;0.43;0.10;;;19.10;99.90;;;;;;5015326;28;20029;-78
2023/07/26 08:09:58;;;;;;;4.00;0.30;;;19.30;99.90;;;;;;5015175;28;20105;-78
2023/07/26 08:12:23;;;;;;;0.28;0.20;;;19.30;99.90;;;;;;5015115;28;20101;-78
2023/07/26 08:14:52;;;;;;;0.00;0.00;;;19.40;99.90;;;;;;5015500;28;20045;-77
2023/07/26 08:17:18;;;;;;;0.43;0.30;;;19.40;99.90;;;;;;5012952;28;20048;-76
2023/07/26 08:19:46;;;;;;;0.05;0.05;;;19.40;99.90;;;;;;5012508;28;20021;-77
2023/07/26 08:22:11;;;;;;;1.25;0.73;;;19.30;99.50;;;;;;5012421;28;20030;-77
2023/07/26 08:24:37;;;;;;;0.20;0.10;;;19.40;99.90;;;;;;5012549;28;20026;-77
2023/07/26 08:27:06;;;;;;;0.10;0.10;;;19.40;99.90;;;;;;5013120;28;20097;-77
2023/07/26 08:29:32;;;;;;;0.20;0.17;;;19.50;96.90;;;;;;5014255;28;20113;-77
2023/07/26 08:31:57;;;;;;;4.63;0.30;;;19.50;97.80;;;;;;5014534;28;20053;-77
2023/07/26 08:34:23;;;;;;;0.17;0.05;;;19.70;97.30;;;;;;5013814;28;20105;-77
2023/07/26 08:36:49;;;;;;;0.20;0.20;;;19.70;96.60;;;;;;5013805;28;20040;-77
2023/07/26 08:39:14;;;;;;;0.45;0.20;;;19.80;96.90;;;;;;5011234;28;20480;-75
2023/07/26 08:41:40;;;;;;;0.40;0.35;;;19.80;96.30;;;;;;5035701;23;20053;-79
2023/07/26 08:44:08;;;;;;;0.10;0.10;;;20.00;96.40;;;;;;5020559;28;20527;-78
2023/07/26 08:46:43;;;;;;;0.03;0.00;;;20.10;96.20;;;;;;5019341;28;20037;-78
2023/07/26 08:49:09;;;;;;;0.10;0.10;;;20.20;94.70;;;;;;5017752;28;20073;-80
2023/07/26 08:51:35;;;;;;;0.00;0.00;;;20.30;96.10;;;;;;5018747;28;20491;-77
2023/07/26 08:54:00;;;;;;;0.60;0.00;;;20.30;94.70;;;;;;5018055;28;20090;-78
2023/07/26 08:56:27;;;;;;;0.13;0.10;;;20.20;94.70;;;;;;5020403;28;20030;-78
2023/07/26 08:58:52;;;;;;;0.80;0.50;;;20.40;95.10;;;;;;5018128;28;20022;-79
2023/07/26 09:01:19;;;;;;;0.35;0.20;;;20.40;94.90;;;;;;5018773;28;20029;-79
2023/07/26 09:03:44;;;;;;;0.95;0.20;;;20.50;93.00;;;;;;5016462;28;20026;-78
2023/07/26 09:06:10;;;;;;;0.13;0.13;;;20.40;93.30;;;;;;5018243;28;20068;-78
2023/07/26 09:08:36;;;;;;;0.60;0.30;;;20.40;92.30;;;;;;5019663;28;20029;-78
2023/07/26 09:11:25;;;;;;;0.15;0.10;;;20.40;91.90;;;;;;5017564;28;20022;-77
2023/07/26 09:14:01;;;;;;;0.25;0.10;;;20.40;91.30;;;;;;5016946;28;20057;-78
2023/07/26 09:16:28;;;;;;;0.20;0.20;;;20.50;93.80;;;;;;5017224;28;20037;-78
2023/07/26 09:18:57;;;;;;;0.30;0.22;;;20.40;91.30;;;;;;5014207;28;20392;-77
2023/07/26 09:21:28;;;;;;;0.38;0.20;;;20.50;91.10;;;;;;5010925;28;20033;-78
2023/07/26 09:23:54;;;;;;;0.32;0.10;;;20.50;91.10;;;;;;5012094;28;20025;-78
2023/07/26 09:26:45;;;;;;;0.38;0.38;;;20.40;90.70;;;;;;5010554;28;20037;-77
2023/07/26 09:29:15;;;;;;;0.03;0.00;;;20.20;89.20;;;;;;5008256;28;20736;-78
2023/07/26 09:31:42;;;;;;;0.30;0.30;;;20.30;87.80;;;;;;5011133;28;20037;-77
2023/07/26 09:34:13;;;;;;;0.15;0.15;;;20.30;86.60;;;;;;5012216;28;20026;-76
2023/07/26 09:36:50;;;;;;;0.55;0.20;;;20.60;90.00;;;;;;5011491;28;20026;-76
2023/07/26 09:39:17;;;;;;;1.65;0.30;;;20.90;87.20;;;;;;5012128;28;20022;-76
2023/07/26 09:41:45;;;;;;;0.25;0.25;;;20.90;88.80;;;;;;5010883;28;20121;-77
2023/07/26 09:44:16;;;;;;;0.15;0.13;;;20.90;88.50;;;;;;5012158;28;20033;-78
2023/07/26 09:46:56;;;;;;;0.55;0.32;;;20.80;86.40;;;;;;5011970;28;20028;-77
2023/07/26 09:49:24;;;;;;;0.40;0.40;;;20.60;83.40;;;;;;5011562;28;20026;-77
2023/07/26 09:51:54;;;;;;;0.20;0.20;;;20.70;84.10;;;;;;5011913;28;20021;-77
2023/07/26 09:54:21;;;;;;;0.28;0.20;;;20.70;84.10;;;;;;5010730;28;20503;-77
2023/07/26 09:56:47;;;;;;;0.88;0.50;;;20.60;81.40;;;;;;5011987;28;20034;-77
2023/07/26 09:59:14;;;;;;;0.20;0.20;;;20.60;82.90;;;;;;5011945;28;20026;-77
2023/07/26 10:01:44;;;;;;;1.95;0.20;;;20.60;80.90;;;;;;5013017;28;20101;-77
2023/07/26 10:04:29;;;;;;;1.20;0.20;;;20.60;78.20;;;;;;5016401;28;20105;-77
2023/07/26 10:06:57;;;;;;;1.35;0.20;;;20.40;76.90;;;;;;5015222;28;20034;-78
2023/07/26 10:09:25;;;;;;;0.70;0.15;;;20.40;78.20;;;;;;5014998;28;20072;-77
2023/07/26 10:11:53;;;;;;;0.30;0.30;;;20.50;77.80;;;;;;5016398;28;20100;-76
2023/07/26 10:14:20;;;;;;;0.08;0.08;;;20.60;79.00;;;;;;5014776;28;20029;-76
2023/07/26 10:16:47;;;;;;;0.20;0.20;;;20.80;76.70;;;;;;5014905;28;20029;-76
2023/07/26 10:19:14;;;;;;;0.30;0.20;;;21.10;77.70;;;;;;5015875;28;20436;-78
2023/07/26 10:21:42;;;;;;;0.90;0.30;;;21.30;78.70;;;;;;5014821;28;20025;-78
2023/07/26 10:24:11;;;;;;;1.00;0.20;;;21.30;72.60;;;;;;5016216;28;20030;-78
2023/07/26 10:26:37;;;;;;;1.05;0.30;;;21.50;73.20;;;;;;5014615;28;20119;-77
2023/07/26 10:29:03;;;;;;;0.20;0.20;;;21.50;71.60;;;;;;5013735;28;20026;-77
2023/07/26 10:31:30;;;;;;;0.28;0.28;;;21.50;70.20;;;;;;5014179;28;20026;-77
2023/07/26 10:33:57;;;;;;;0.20;0.20;;;21.60;70.70;;;;;;5015854;28;20087;-77
2023/07/26 10:36:33;;;;;;;0.20;0.20;;;21.90;72.40;;;;;;5013895;28;20026;-77
2023/07/26 10:39:06;;;;;;;0.52;0.35;;;21.60;68.50;;;;;;5014307;28;20112;-77
2023/07/26 10:41:34;;;;;;;0.17;0.17;;;21.40;70.50;;;;;;5015117;28;20097;-77
2023/07/26 10:44:11;;;;;;;0.30;0.30;;;21.20;70.20;;;;;;5013610;28;20065;-77
2023/07/26 10:46:45;;;;;;;0.45;0.22;;;21.00;70.20;;;;;;5015504;28;20559;-77
2023/07/26 10:49:20;;;;;;;0.73;0.13;;;20.70;71.20;;;;;;5013847;28;20419;-78
2023/07/26 10:52:02;;;;;;;0.10;0.10;;;20.60;73.40;;;;;;5015161;28;20392;-77
2023/07/26 10:54:41;;;;;;;0.13;0.13;;;20.70;75.30;;;;;;5013727;28;20026;-77
2023/07/26 10:57:28;;;;;;;1.77;0.32;;;20.70;75.00;;;;;;5015168;28;20157;-77
2023/07/26 11:00:06;;;;;;;0.20;0.20;;;21.10;70.30;;;;;;5013754;28;20529;-77
2023/07/26 11:02:44;;;;;;;0.00;0.00;;;21.20;72.50;;;;;;5013904;28;20033;-77
2023/07/26 11:05:21;;;;;;;0.25;0.25;;;21.20;70.60;;;;;;5013621;28;20033;-77
2023/07/26 11:08:04;;;;;;;0.25;0.25;;;21.30;67.00;;;;;;5013661;28;20041;-77
2023/07/26 11:10:32;;;;;;;0.20;0.20;;;21.40;68.90;;;;;;5013323;28;20037;-76
2023/07/26 11:13:19;;;;;;;1.15;0.30;;;21.40;67.60;;;;;;5013322;28;20508;-76
2023/07/26 11:15:52;;;;;;;0.40;0.30;;;21.30;67.90;;;;;;5014699;28;20484;-76
2023/07/26 11:18:20;;;;;;;1.08;0.50;;;21.20;68.20;;;;;;5014900;28;20108;-77
2023/07/26 11:20:47;;;;;;;0.20;0.20;;;21.10;66.00;;;;;;5014268;28;20100;-77
2023/07/26 11:23:25;;;;;;;0.20;0.20;;;21.00;66.30;;;;;;5015002;28;20026;-76
2023/07/26 11:26:01;;;;;;;0.43;0.35;;;21.10;65.80;;;;;;5013032;28;20033;-76
2023/07/26 11:28:31;;;;;;;0.20;0.20;;;21.20;67.20;;;;;;5014283;28;20058;-77
2023/07/26 11:30:58;;;;;;;0.88;0.20;;;20.90;67.30;;;;;;5013965;28;20092;-78
2023/07/26 11:33:31;;;;;;;0.30;0.10;;;20.70;67.60;;;;;;5014583;28;20494;-76
2023/07/26 11:35:58;;;;;;;2.90;0.20;;;20.50;68.20;;;;;;5013769;28;20032;-77
2023/07/26 11:38:24;;;;;;;1.40;0.22;;;20.40;71.30;;;;;;5014542;28;20108;-77
2023/07/26 11:40:52;;;;;;;0.10;0.10;;;20.50;71.70;;;;;;5014347;28;20053;-77
2023/07/26 11:43:19;;;;;;;1.30;0.30;;;20.50;69.20;;;;;;5012790;28;20037;-77
2023/07/26 11:45:45;;;;;;;0.40;0.40;;;20.40;70.10;;;;;;5013771;28;20025;-78
2023/07/26 11:48:11;;;;;;;1.23;0.45;;;20.50;69.70;;;;;;5014096;28;20037;-78
2023/07/26 11:50:38;;;;;;;0.30;0.20;;;20.50;67.70;;;;;;5014048;28;20075;-77
2023/07/26 11:53:08;;;;;;;0.73;0.10;;;20.80;67.70;;;;;;5012660;28;20022;-78
2023/07/26 11:55:35;;;;;;;0.30;0.30;;;20.90;67.10;;;;;;5013825;28;20021;-78
2023/07/26 11:58:06;;;;;;;0.10;0.10;;;20.90;65.90;;;;;;5014362;28;20033;-77
2023/07/26 12:00:33;;;;;;;0.32;0.10;;;20.70;66.00;;;;;;5012325;28;20026;-78
2023/07/26 12:03:04;;;;;;;0.30;0.30;;;20.70;66.40;;;;;;5014144;28;20037;-77
2023/07/26 12:05:30;;;;;;;0.10;0.10;;;20.70;66.60;;;;;;5014256;28;20030;-77
2023/07/26 12:08:00;;;;;;;0.10;0.10;;;20.80;68.20;;;;;;5013827;28;20109;-78
2023/07/26 12:10:34;;;;;;;0.10;0.10;;;20.80;69.60;;;;;;5014081;28;20049;-78
2023/07/26 12:13:07;;;;;;;0.60;0.30;;;20.80;66.10;;;;;;5014662;28;20506;-77
2023/07/26 12:15:50;;;;;;;0.25;0.10;;;20.70;66.30;;;;;;5015049;28;20542;-78
2023/07/26 12:18:18;;;;;;;0.20;0.20;;;20.50;65.30;;;;;;5014242;28;20030;-78
2023/07/26 12:21:05;;;;;;;0.15;0.15;;;20.40;65.20;;;;;;5012870;28;20472;-78
2023/07/26 12:23:53;;;;;;;0.10;0.10;;;20.30;66.60;;;;;;5012829;28;20040;-78
2023/07/26 12:26:26;;;;;;;0.20;0.20;;;20.30;66.10;;;;;;5012696;28;20026;-78
2023/07/26 12:28:53;;;;;;;0.80;0.80;;;20.50;66.40;;;;;;5013449;28;20065;-76
2023/07/26 12:31:24;;;;;;;4.50;0.57;;;20.50;65.90;;;;;;5012333;28;20088;-76
2023/07/26 12:34:16;;;;;;;0.82;0.10;;;20.70;66.80;;;;;;5012377;28;20025;-77
2023/07/26 12:36:45;;;;;;;0.30;0.13;;;20.60;65.60;;;;;;5010031;28;20095;-77
2023/07/26 12:39:21;;;;;;;0.20;0.20;;;20.60;67.30;;;;;;5012358;28;20026;-77
2023/07/26 12:41:47;;;;;;;0.45;0.20;;;20.50;64.80;;;;;;5012211;28;20034;-77
2023/07/26 12:44:17;;;;;;;0.22;0.22;;;20.50;65.20;;;;;;5012850;28;20500;-77
2023/07/26 12:46:44;;;;;;;0.10;0.10;;;20.60;64.60;;;;;;5013111;28;20030;-77
2023/07/26 12:49:10;;;;;;;2.53;0.20;;;20.60;64.30;;;;;;5012689;28;20104;-77
2023/07/26 12:51:38;;;;;;;0.03;0.03;;;20.60;65.50;;;;;;5013068;28;20437;-77